sensor_id;sensor_type;location;lat;lon;timestamp;temperature;humidity
17146;DHT22;8688;54.444;18.444;2022-11-15T00:01:52;6.90;99.90
17146;DHT22;8688;54.444;18.444;2022-11-15T00:04:19;6.90;99.90
17146;DHT22;8688;54.444;18.444;2022-11-15T00:06:47;6.90;99.90
17146;DHT22;8688;54.444;18.444;2022-11-15T00:11:51;6.90;99.90
17146;DHT22;8688;54.444;18.444;2022-11-15T00:14:19;6.90;99.90
17146;DHT22;8688;54.444;18.444;2022-11-15T00:16:46;6.90;99.90
17146;DHT22;8688;54.444;18.444;2022-11-15T00:19:15;6.90;99.90
17146;DHT22;8688;54.444;18.444;2022-11-15T00:21:43;6.90;99.90
17146;DHT22;8688;54.444;18.444;2022-11-15T00:24:10;6.90;99.90
17146;DHT22;8688;54.444;18.444;2022-11-15T00:26:37;6.90;99.90
17146;DHT22;8688;54.444;18.444;2022-11-15T00:29:05;6.90;99.90
17146;DHT22;8688;54.444;18.444;2022-11-15T00:31:32;6.90;99.90
17146;DHT22;8688;54.444;18.444;2022-11-15T00:34:00;6.90;99.90
17146;DHT22;8688;54.444;18.444;2022-11-15T00:36:29;6.90;99.90
17146;DHT22;8688;54.444;18.444;2022-11-15T00:38:59;7.00;99.90
17146;DHT22;8688;54.444;18.444;2022-11-15T00:41:27;6.90;99.90
17146;DHT22;8688;54.444;18.444;2022-11-15T00:46:23;6.90;99.90
17146;DHT22;8688;54.444;18.444;2022-11-15T00:48:50;7.00;99.90
17146;DHT22;8688;54.444;18.444;2022-11-15T00:51:18;6.90;99.90
17146;DHT22;8688;54.444;18.444;2022-11-15T00:53:47;6.90;99.90
17146;DHT22;8688;54.444;18.444;2022-11-15T00:56:14;6.90;99.90
17146;DHT22;8688;54.444;18.444;2022-11-15T00:58:41;6.90;99.90
17146;DHT22;8688;54.444;18.444;2022-11-15T01:01:10;6.90;99.90
17146;DHT22;8688;54.444;18.444;2022-11-15T01:03:39;6.90;99.90
17146;DHT22;8688;54.444;18.444;2022-11-15T01:06:07;6.90;99.90
17146;DHT22;8688;54.444;18.444;2022-11-15T01:08:35;6.90;99.90
17146;DHT22;8688;54.444;18.444;2022-11-15T01:11:06;6.90;99.90
17146;DHT22;8688;54.444;18.444;2022-11-15T01:13:34;6.90;99.90
17146;DHT22;8688;54.444;18.444;2022-11-15T01:16:06;6.90;99.90
17146;DHT22;8688;54.444;18.444;2022-11-15T01:18:34;6.90;99.90
17146;DHT22;8688;54.444;18.444;2022-11-15T01:21:05;6.90;99.90
17146;DHT22;8688;54.444;18.444;2022-11-15T01:23:33;6.90;99.90
17146;DHT22;8688;54.444;18.444;2022-11-15T01:26:01;6.90;99.90
17146;DHT22;8688;54.444;18.444;2022-11-15T01:28:32;6.90;99.90
17146;DHT22;8688;54.444;18.444;2022-11-15T01:31:00;6.90;99.90
17146;DHT22;8688;54.444;18.444;2022-11-15T01:33:29;6.90;99.90
17146;DHT22;8688;54.444;18.444;2022-11-15T01:35:56;6.90;99.90
17146;DHT22;8688;54.444;18.444;2022-11-15T01:38:24;6.90;99.90
17146;DHT22;8688;54.444;18.444;2022-11-15T01:40:51;6.90;99.90
17146;DHT22;8688;54.444;18.444;2022-11-15T01:43:23;6.90;99.90
17146;DHT22;8688;54.444;18.444;2022-11-15T01:45:58;6.90;99.90
17146;DHT22;8688;54.444;18.444;2022-11-15T01:48:29;6.90;99.90
17146;DHT22;8688;54.444;18.444;2022-11-15T01:50:57;6.90;99.90
17146;DHT22;8688;54.444;18.444;2022-11-15T01:53:26;6.90;99.90
17146;DHT22;8688;54.444;18.444;2022-11-15T01:55:54;6.90;99.90
17146;DHT22;8688;54.444;18.444;2022-11-15T01:58:22;6.90;99.90
17146;DHT22;8688;54.444;18.444;2022-11-15T02:00:51;6.90;99.90
17146;DHT22;8688;54.444;18.444;2022-11-15T02:03:19;6.90;99.90
17146;DHT22;8688;54.444;18.444;2022-11-15T02:05:47;6.90;99.90
17146;DHT22;8688;54.444;18.444;2022-11-15T02:08:15;6.90;99.90
17146;DHT22;8688;54.444;18.444;2022-11-15T02:10:46;6.90;99.90
17146;DHT22;8688;54.444;18.444;2022-11-15T02:13:14;6.90;99.90
17146;DHT22;8688;54.444;18.444;2022-11-15T02:15:56;6.80;99.90
17146;DHT22;8688;54.444;18.444;2022-11-15T02:18:29;6.80;99.90
17146;DHT22;8688;54.444;18.444;2022-11-15T02:21:11;6.80;99.90
17146;DHT22;8688;54.444;18.444;2022-11-15T02:27:19;6.80;99.90
17146;DHT22;8688;54.444;18.444;2022-11-15T02:30:04;6.80;99.90
17146;DHT22;8688;54.444;18.444;2022-11-15T02:32:40;6.80;99.90
17146;DHT22;8688;54.444;18.444;2022-11-15T02:35:16;6.80;99.90
17146;DHT22;8688;54.444;18.444;2022-11-15T02:37:51;6.80;99.90
17146;DHT22;8688;54.444;18.444;2022-11-15T02:40:29;6.80;99.90
17146;DHT22;8688;54.444;18.444;2022-11-15T02:43:06;6.80;99.90
17146;DHT22;8688;54.444;18.444;2022-11-15T02:45:56;6.80;99.90
17146;DHT22;8688;54.444;18.444;2022-11-15T02:48:30;6.80;99.90
17146;DHT22;8688;54.444;18.444;2022-11-15T02:50:59;6.70;99.90
17146;DHT22;8688;54.444;18.444;2022-11-15T02:53:26;6.80;99.90
17146;DHT22;8688;54.444;18.444;2022-11-15T02:55:55;6.80;99.90
17146;DHT22;8688;54.444;18.444;2022-11-15T02:58:46;6.70;99.90
17146;DHT22;8688;54.444;18.444;2022-11-15T03:01:27;6.70;99.90
17146;DHT22;8688;54.444;18.444;2022-11-15T03:04:12;6.80;99.90
17146;DHT22;8688;54.444;18.444;2022-11-15T03:06:45;6.80;99.90
17146;DHT22;8688;54.444;18.444;2022-11-15T03:09:21;6.80;99.90
17146;DHT22;8688;54.444;18.444;2022-11-15T03:11:56;6.70;99.90
17146;DHT22;8688;54.444;18.444;2022-11-15T03:14:30;6.70;99.90
17146;DHT22;8688;54.444;18.444;2022-11-15T03:17:05;6.70;99.90
17146;DHT22;8688;54.444;18.444;2022-11-15T03:19:44;6.70;99.90
17146;DHT22;8688;54.444;18.444;2022-11-15T03:22:14;6.70;99.90
17146;DHT22;8688;54.444;18.444;2022-11-15T03:24:44;6.70;99.90
17146;DHT22;8688;54.444;18.444;2022-11-15T03:27:15;6.70;99.90
17146;DHT22;8688;54.444;18.444;2022-11-15T03:29:46;6.70;99.90
17146;DHT22;8688;54.444;18.444;2022-11-15T03:32:18;6.70;99.90
17146;DHT22;8688;54.444;18.444;2022-11-15T03:34:50;6.60;99.90
17146;DHT22;8688;54.444;18.444;2022-11-15T03:37:22;6.60;99.90
17146;DHT22;8688;54.444;18.444;2022-11-15T03:39:51;6.60;99.90
17146;DHT22;8688;54.444;18.444;2022-11-15T03:42:23;6.60;99.90
17146;DHT22;8688;54.444;18.444;2022-11-15T03:45:01;6.60;99.90
17146;DHT22;8688;54.444;18.444;2022-11-15T03:47:34;6.60;99.90
17146;DHT22;8688;54.444;18.444;2022-11-15T03:50:07;6.60;99.90
17146;DHT22;8688;54.444;18.444;2022-11-15T03:52:35;6.60;99.90
17146;DHT22;8688;54.444;18.444;2022-11-15T03:55:06;6.50;99.90
17146;DHT22;8688;54.444;18.444;2022-11-15T03:57:34;6.50;99.90
17146;DHT22;8688;54.444;18.444;2022-11-15T04:00:01;6.50;99.90
17146;DHT22;8688;54.444;18.444;2022-11-15T04:02:28;6.40;99.90
17146;DHT22;8688;54.444;18.444;2022-11-15T04:04:56;6.50;99.90
17146;DHT22;8688;54.444;18.444;2022-11-15T04:07:25;6.50;99.90
17146;DHT22;8688;54.444;18.444;2022-11-15T04:09:52;6.40;99.90
17146;DHT22;8688;54.444;18.444;2022-11-15T04:12:34;6.40;99.90
17146;DHT22;8688;54.444;18.444;2022-11-15T04:15:03;6.40;99.90
17146;DHT22;8688;54.444;18.444;2022-11-15T04:17:35;6.40;99.90
17146;DHT22;8688;54.444;18.444;2022-11-15T04:20:04;6.40;99.90
17146;DHT22;8688;54.444;18.444;2022-11-15T04:22:52;6.40;99.90
17146;DHT22;8688;54.444;18.444;2022-11-15T04:25:37;6.40;99.90
17146;DHT22;8688;54.444;18.444;2022-11-15T04:28:04;6.30;99.90
17146;DHT22;8688;54.444;18.444;2022-11-15T04:30:32;6.30;99.90
17146;DHT22;8688;54.444;18.444;2022-11-15T04:32:59;6.30;99.90
17146;DHT22;8688;54.444;18.444;2022-11-15T04:35:27;6.30;99.90
17146;DHT22;8688;54.444;18.444;2022-11-15T04:37:56;6.30;99.90
17146;DHT22;8688;54.444;18.444;2022-11-15T04:40:23;6.30;99.90
17146;DHT22;8688;54.444;18.444;2022-11-15T04:42:51;6.30;99.90
17146;DHT22;8688;54.444;18.444;2022-11-15T04:45:19;6.30;99.90
17146;DHT22;8688;54.444;18.444;2022-11-15T04:47:46;6.30;99.90
17146;DHT22;8688;54.444;18.444;2022-11-15T04:50:14;6.30;99.90
17146;DHT22;8688;54.444;18.444;2022-11-15T04:52:43;6.30;99.90
17146;DHT22;8688;54.444;18.444;2022-11-15T04:55:12;6.30;99.90
17146;DHT22;8688;54.444;18.444;2022-11-15T04:57:40;6.30;99.90
17146;DHT22;8688;54.444;18.444;2022-11-15T05:00:09;6.30;99.90
17146;DHT22;8688;54.444;18.444;2022-11-15T05:02:37;6.30;99.90
17146;DHT22;8688;54.444;18.444;2022-11-15T05:05:21;6.30;99.90
17146;DHT22;8688;54.444;18.444;2022-11-15T05:07:49;6.30;99.90
17146;DHT22;8688;54.444;18.444;2022-11-15T05:10:18;6.30;99.90
17146;DHT22;8688;54.444;18.444;2022-11-15T05:12:47;6.30;99.90
17146;DHT22;8688;54.444;18.444;2022-11-15T05:15:14;6.30;99.90
17146;DHT22;8688;54.444;18.444;2022-11-15T05:17:42;6.30;99.90
17146;DHT22;8688;54.444;18.444;2022-11-15T05:20:10;6.30;99.90
17146;DHT22;8688;54.444;18.444;2022-11-15T05:22:38;6.30;99.90
17146;DHT22;8688;54.444;18.444;2022-11-15T05:25:06;6.30;99.90
17146;DHT22;8688;54.444;18.444;2022-11-15T05:27:35;6.40;99.90
17146;DHT22;8688;54.444;18.444;2022-11-15T05:30:03;6.30;99.90
17146;DHT22;8688;54.444;18.444;2022-11-15T05:32:30;6.30;99.90
17146;DHT22;8688;54.444;18.444;2022-11-15T05:34:58;6.30;99.90
17146;DHT22;8688;54.444;18.444;2022-11-15T05:37:26;6.30;99.90
17146;DHT22;8688;54.444;18.444;2022-11-15T05:39:53;6.30;99.90
17146;DHT22;8688;54.444;18.444;2022-11-15T05:42:21;6.30;99.90
17146;DHT22;8688;54.444;18.444;2022-11-15T05:44:50;6.30;99.90
17146;DHT22;8688;54.444;18.444;2022-11-15T05:47:20;6.30;99.90
17146;DHT22;8688;54.444;18.444;2022-11-15T05:49:51;6.30;99.90
17146;DHT22;8688;54.444;18.444;2022-11-15T05:52:21;6.30;99.90
17146;DHT22;8688;54.444;18.444;2022-11-15T05:54:49;6.40;99.90
17146;DHT22;8688;54.444;18.444;2022-11-15T05:57:17;6.40;99.90
17146;DHT22;8688;54.444;18.444;2022-11-15T05:59:45;6.40;99.90
17146;DHT22;8688;54.444;18.444;2022-11-15T06:02:14;6.40;99.90
17146;DHT22;8688;54.444;18.444;2022-11-15T06:04:41;6.30;99.90
17146;DHT22;8688;54.444;18.444;2022-11-15T06:07:09;6.40;99.90
17146;DHT22;8688;54.444;18.444;2022-11-15T06:09:36;6.30;99.90
17146;DHT22;8688;54.444;18.444;2022-11-15T06:12:04;6.40;99.90
17146;DHT22;8688;54.444;18.444;2022-11-15T06:14:32;6.30;99.90
17146;DHT22;8688;54.444;18.444;2022-11-15T06:16:59;6.30;99.90
17146;DHT22;8688;54.444;18.444;2022-11-15T06:19:28;6.30;99.90
17146;DHT22;8688;54.444;18.444;2022-11-15T06:21:58;6.30;99.90
17146;DHT22;8688;54.444;18.444;2022-11-15T06:24:26;6.30;99.90
17146;DHT22;8688;54.444;18.444;2022-11-15T06:26:53;6.30;99.90
17146;DHT22;8688;54.444;18.444;2022-11-15T06:32:03;6.30;99.90
17146;DHT22;8688;54.444;18.444;2022-11-15T06:34:32;6.30;99.90
17146;DHT22;8688;54.444;18.444;2022-11-15T06:37:02;6.40;99.90
17146;DHT22;8688;54.444;18.444;2022-11-15T06:39:29;6.30;99.90
17146;DHT22;8688;54.444;18.444;2022-11-15T06:41:57;6.30;99.90
17146;DHT22;8688;54.444;18.444;2022-11-15T06:44:24;6.30;99.90
17146;DHT22;8688;54.444;18.444;2022-11-15T06:46:51;6.30;99.90
17146;DHT22;8688;54.444;18.444;2022-11-15T06:49:19;6.30;99.90
17146;DHT22;8688;54.444;18.444;2022-11-15T06:51:48;6.30;99.90
17146;DHT22;8688;54.444;18.444;2022-11-15T06:54:15;6.30;99.90
17146;DHT22;8688;54.444;18.444;2022-11-15T06:56:42;6.30;99.90
17146;DHT22;8688;54.444;18.444;2022-11-15T06:59:10;6.40;99.90
17146;DHT22;8688;54.444;18.444;2022-11-15T07:01:37;6.40;99.90
17146;DHT22;8688;54.444;18.444;2022-11-15T07:04:05;6.40;99.90
17146;DHT22;8688;54.444;18.444;2022-11-15T07:06:32;6.40;99.90
17146;DHT22;8688;54.444;18.444;2022-11-15T07:09:02;6.40;99.90
17146;DHT22;8688;54.444;18.444;2022-11-15T07:11:30;6.40;99.90
17146;DHT22;8688;54.444;18.444;2022-11-15T07:13:57;6.40;99.90
17146;DHT22;8688;54.444;18.444;2022-11-15T07:16:24;6.30;99.90
17146;DHT22;8688;54.444;18.444;2022-11-15T07:18:52;6.30;99.90
17146;DHT22;8688;54.444;18.444;2022-11-15T07:21:19;6.40;99.90
17146;DHT22;8688;54.444;18.444;2022-11-15T07:23:47;6.40;99.90
17146;DHT22;8688;54.444;18.444;2022-11-15T07:26:16;6.40;99.90
17146;DHT22;8688;54.444;18.444;2022-11-15T07:28:43;6.40;99.90
17146;DHT22;8688;54.444;18.444;2022-11-15T07:31:11;6.40;99.90
17146;DHT22;8688;54.444;18.444;2022-11-15T07:33:38;6.50;99.90
17146;DHT22;8688;54.444;18.444;2022-11-15T07:36:07;6.50;99.90
17146;DHT22;8688;54.444;18.444;2022-11-15T07:38:35;6.50;99.90
17146;DHT22;8688;54.444;18.444;2022-11-15T07:41:05;6.50;99.90
17146;DHT22;8688;54.444;18.444;2022-11-15T07:43:34;6.40;99.90
17146;DHT22;8688;54.444;18.444;2022-11-15T07:46:05;6.30;99.90
17146;DHT22;8688;54.444;18.444;2022-11-15T07:48:35;6.20;99.90
17146;DHT22;8688;54.444;18.444;2022-11-15T07:51:02;6.10;99.90
17146;DHT22;8688;54.444;18.444;2022-11-15T07:53:30;6.10;99.90
17146;DHT22;8688;54.444;18.444;2022-11-15T07:55:57;6.10;99.90
17146;DHT22;8688;54.444;18.444;2022-11-15T07:58:25;6.00;99.90
17146;DHT22;8688;54.444;18.444;2022-11-15T08:00:53;6.00;99.90
17146;DHT22;8688;54.444;18.444;2022-11-15T08:03:21;6.00;99.90
17146;DHT22;8688;54.444;18.444;2022-11-15T08:05:50;6.10;99.90
17146;DHT22;8688;54.444;18.444;2022-11-15T08:08:18;6.10;99.90
17146;DHT22;8688;54.444;18.444;2022-11-15T08:10:46;6.10;99.90
17146;DHT22;8688;54.444;18.444;2022-11-15T08:13:13;6.10;99.90
17146;DHT22;8688;54.444;18.444;2022-11-15T08:15:41;6.10;99.90
17146;DHT22;8688;54.444;18.444;2022-11-15T08:18:12;6.00;99.90
17146;DHT22;8688;54.444;18.444;2022-11-15T08:20:40;6.00;99.90
17146;DHT22;8688;54.444;18.444;2022-11-15T08:23:08;6.00;99.90
17146;DHT22;8688;54.444;18.444;2022-11-15T08:25:37;5.90;99.90
17146;DHT22;8688;54.444;18.444;2022-11-15T08:28:06;6.00;99.90
17146;DHT22;8688;54.444;18.444;2022-11-15T08:30:36;5.90;99.90
17146;DHT22;8688;54.444;18.444;2022-11-15T08:33:04;6.00;99.90
17146;DHT22;8688;54.444;18.444;2022-11-15T08:35:33;6.10;99.90
17146;DHT22;8688;54.444;18.444;2022-11-15T08:38:01;6.20;99.90
17146;DHT22;8688;54.444;18.444;2022-11-15T08:40:28;6.30;99.90
17146;DHT22;8688;54.444;18.444;2022-11-15T08:42:55;6.40;99.90
17146;DHT22;8688;54.444;18.444;2022-11-15T08:45:24;6.50;99.90
17146;DHT22;8688;54.444;18.444;2022-11-15T08:47:52;6.60;99.90
17146;DHT22;8688;54.444;18.444;2022-11-15T08:50:19;6.60;99.90
17146;DHT22;8688;54.444;18.444;2022-11-15T08:52:48;6.60;99.90
17146;DHT22;8688;54.444;18.444;2022-11-15T08:55:15;6.60;99.90
17146;DHT22;8688;54.444;18.444;2022-11-15T08:57:43;6.70;99.90
17146;DHT22;8688;54.444;18.444;2022-11-15T09:00:11;6.70;99.90
17146;DHT22;8688;54.444;18.444;2022-11-15T09:02:39;6.70;99.90
17146;DHT22;8688;54.444;18.444;2022-11-15T09:05:08;6.50;99.90
17146;DHT22;8688;54.444;18.444;2022-11-15T09:07:35;6.50;99.90
17146;DHT22;8688;54.444;18.444;2022-11-15T09:10:05;6.50;99.90
17146;DHT22;8688;54.444;18.444;2022-11-15T09:12:32;6.60;99.90
17146;DHT22;8688;54.444;18.444;2022-11-15T09:15:01;6.70;99.90
17146;DHT22;8688;54.444;18.444;2022-11-15T09:17:28;6.70;99.90
17146;DHT22;8688;54.444;18.444;2022-11-15T09:39:07;6.90;99.90
17146;DHT22;8688;54.444;18.444;2022-11-15T09:41:51;6.90;99.90
17146;DHT22;8688;54.444;18.444;2022-11-15T09:44:38;6.90;99.90
17146;DHT22;8688;54.444;18.444;2022-11-15T09:50:00;6.90;99.90
17146;DHT22;8688;54.444;18.444;2022-11-15T09:52:29;6.90;99.90
17146;DHT22;8688;54.444;18.444;2022-11-15T09:54:57;7.00;99.90
17146;DHT22;8688;54.444;18.444;2022-11-15T09:57:31;7.00;99.90
17146;DHT22;8688;54.444;18.444;2022-11-15T10:00:06;7.00;99.90
17146;DHT22;8688;54.444;18.444;2022-11-15T10:02:48;7.00;99.90
17146;DHT22;8688;54.444;18.444;2022-11-15T10:05:20;7.00;99.90
17146;DHT22;8688;54.444;18.444;2022-11-15T10:07:56;7.00;99.90
17146;DHT22;8688;54.444;18.444;2022-11-15T10:10:32;7.00;99.90
17146;DHT22;8688;54.444;18.444;2022-11-15T10:13:03;7.00;99.90
17146;DHT22;8688;54.444;18.444;2022-11-15T10:15:31;6.90;99.90
17146;DHT22;8688;54.444;18.444;2022-11-15T10:18:12;7.00;99.90
17146;DHT22;8688;54.444;18.444;2022-11-15T10:20:54;7.00;99.90
17146;DHT22;8688;54.444;18.444;2022-11-15T10:31:22;6.50;99.90
17146;DHT22;8688;54.444;18.444;2022-11-15T10:33:50;6.60;99.90
17146;DHT22;8688;54.444;18.444;2022-11-15T10:36:21;6.70;99.90
17146;DHT22;8688;54.444;18.444;2022-11-15T10:38:56;6.60;99.90
17146;DHT22;8688;54.444;18.444;2022-11-15T10:41:34;6.60;99.90
17146;DHT22;8688;54.444;18.444;2022-11-15T10:44:17;6.70;99.90
17146;DHT22;8688;54.444;18.444;2022-11-15T10:46:47;6.70;99.90
17146;DHT22;8688;54.444;18.444;2022-11-15T10:49:17;6.60;99.90
17146;DHT22;8688;54.444;18.444;2022-11-15T10:51:47;6.70;99.90
17146;DHT22;8688;54.444;18.444;2022-11-15T10:54:21;6.60;99.90
17146;DHT22;8688;54.444;18.444;2022-11-15T10:56:51;6.60;99.90
17146;DHT22;8688;54.444;18.444;2022-11-15T10:59:25;6.60;99.90
17146;DHT22;8688;54.444;18.444;2022-11-15T11:01:55;6.60;99.90
17146;DHT22;8688;54.444;18.444;2022-11-15T11:04:23;6.50;99.90
17146;DHT22;8688;54.444;18.444;2022-11-15T11:06:52;6.50;99.90
17146;DHT22;8688;54.444;18.444;2022-11-15T11:09:30;6.50;99.90
17146;DHT22;8688;54.444;18.444;2022-11-15T11:11:58;6.50;99.90
17146;DHT22;8688;54.444;18.444;2022-11-15T11:14:28;6.50;99.90
17146;DHT22;8688;54.444;18.444;2022-11-15T11:17:03;6.50;99.90
17146;DHT22;8688;54.444;18.444;2022-11-15T11:19:58;6.40;99.90
17146;DHT22;8688;54.444;18.444;2022-11-15T11:22:32;6.40;99.90
17146;DHT22;8688;54.444;18.444;2022-11-15T11:25:16;6.40;99.90
17146;DHT22;8688;54.444;18.444;2022-11-15T11:27:55;6.40;99.90
17146;DHT22;8688;54.444;18.444;2022-11-15T11:30:31;6.40;99.90
17146;DHT22;8688;54.444;18.444;2022-11-15T11:33:10;6.40;99.90
17146;DHT22;8688;54.444;18.444;2022-11-15T11:35:48;6.40;99.90
17146;DHT22;8688;54.444;18.444;2022-11-15T11:38:29;6.40;99.90
17146;DHT22;8688;54.444;18.444;2022-11-15T11:41:06;6.40;99.90
17146;DHT22;8688;54.444;18.444;2022-11-15T11:46:47;6.50;99.90
17146;DHT22;8688;54.444;18.444;2022-11-15T11:49:25;6.50;99.90
17146;DHT22;8688;54.444;18.444;2022-11-15T11:52:00;6.50;99.90
17146;DHT22;8688;54.444;18.444;2022-11-15T11:54:35;6.50;99.90
17146;DHT22;8688;54.444;18.444;2022-11-15T11:57:11;6.50;99.90
17146;DHT22;8688;54.444;18.444;2022-11-15T11:59:46;6.50;99.90
17146;DHT22;8688;54.444;18.444;2022-11-15T12:02:19;6.60;99.90
17146;DHT22;8688;54.444;18.444;2022-11-15T12:04:51;6.60;99.90
17146;DHT22;8688;54.444;18.444;2022-11-15T12:07:23;6.50;99.90
17146;DHT22;8688;54.444;18.444;2022-11-15T12:09:55;6.50;99.90
17146;DHT22;8688;54.444;18.444;2022-11-15T12:12:30;6.50;99.90
17146;DHT22;8688;54.444;18.444;2022-11-15T12:15:02;6.50;99.90
17146;DHT22;8688;54.444;18.444;2022-11-15T12:17:31;6.60;99.90
17146;DHT22;8688;54.444;18.444;2022-11-15T12:20:03;6.60;99.90
17146;DHT22;8688;54.444;18.444;2022-11-15T12:22:40;6.70;99.90
17146;DHT22;8688;54.444;18.444;2022-11-15T12:25:16;6.70;99.90
17146;DHT22;8688;54.444;18.444;2022-11-15T12:27:48;6.70;99.90
17146;DHT22;8688;54.444;18.444;2022-11-15T12:30:18;6.80;99.90
17146;DHT22;8688;54.444;18.444;2022-11-15T12:32:54;6.80;99.90
17146;DHT22;8688;54.444;18.444;2022-11-15T12:35:32;6.80;99.90
17146;DHT22;8688;54.444;18.444;2022-11-15T12:38:01;6.80;99.90
17146;DHT22;8688;54.444;18.444;2022-11-15T12:40:32;6.80;99.90
17146;DHT22;8688;54.444;18.444;2022-11-15T12:46:03;6.80;99.90
17146;DHT22;8688;54.444;18.444;2022-11-15T12:48:58;6.70;99.90
17146;DHT22;8688;54.444;18.444;2022-11-15T12:54:57;6.80;99.90
17146;DHT22;8688;54.444;18.444;2022-11-15T12:57:36;6.80;99.90
17146;DHT22;8688;54.444;18.444;2022-11-15T13:06:09;6.90;99.90
17146;DHT22;8688;54.444;18.444;2022-11-15T13:08:48;6.90;99.90
17146;DHT22;8688;54.444;18.444;2022-11-15T13:11:51;6.90;99.90
17146;DHT22;8688;54.444;18.444;2022-11-15T13:14:46;6.90;99.90
17146;DHT22;8688;54.444;18.444;2022-11-15T13:17:27;6.90;99.90
17146;DHT22;8688;54.444;18.444;2022-11-15T13:22:45;6.90;99.90
17146;DHT22;8688;54.444;18.444;2022-11-15T13:28:32;7.00;99.90
17146;DHT22;8688;54.444;18.444;2022-11-15T13:31:03;6.90;99.90
17146;DHT22;8688;54.444;18.444;2022-11-15T13:33:33;6.90;99.90
17146;DHT22;8688;54.444;18.444;2022-11-15T13:36:03;6.90;99.90
17146;DHT22;8688;54.444;18.444;2022-11-15T13:38:33;7.00;99.90
17146;DHT22;8688;54.444;18.444;2022-11-15T13:41:14;7.00;99.90
17146;DHT22;8688;54.444;18.444;2022-11-15T13:43:45;7.00;99.90
17146;DHT22;8688;54.444;18.444;2022-11-15T13:46:16;7.00;99.90
17146;DHT22;8688;54.444;18.444;2022-11-15T13:48:44;7.00;99.90
17146;DHT22;8688;54.444;18.444;2022-11-15T13:51:17;7.00;99.90
17146;DHT22;8688;54.444;18.444;2022-11-15T13:53:47;7.00;99.90
17146;DHT22;8688;54.444;18.444;2022-11-15T13:56:17;7.00;99.90
17146;DHT22;8688;54.444;18.444;2022-11-15T13:58:49;7.10;99.90
17146;DHT22;8688;54.444;18.444;2022-11-15T14:01:18;7.10;99.90
17146;DHT22;8688;54.444;18.444;2022-11-15T14:03:50;7.10;99.90
17146;DHT22;8688;54.444;18.444;2022-11-15T14:06:21;7.10;99.90
17146;DHT22;8688;54.444;18.444;2022-11-15T14:09:04;7.00;99.90
17146;DHT22;8688;54.444;18.444;2022-11-15T14:11:32;7.00;99.90
17146;DHT22;8688;54.444;18.444;2022-11-15T14:14:08;7.00;99.90
17146;DHT22;8688;54.444;18.444;2022-11-15T14:16:40;7.00;99.90
17146;DHT22;8688;54.444;18.444;2022-11-15T14:19:11;7.00;99.90
17146;DHT22;8688;54.444;18.444;2022-11-15T14:25:14;7.00;99.90
17146;DHT22;8688;54.444;18.444;2022-11-15T14:27:42;7.00;99.90
17146;DHT22;8688;54.444;18.444;2022-11-15T14:30:15;7.00;99.90
17146;DHT22;8688;54.444;18.444;2022-11-15T14:32:45;6.90;99.90
17146;DHT22;8688;54.444;18.444;2022-11-15T14:35:16;7.00;99.90
17146;DHT22;8688;54.444;18.444;2022-11-15T14:37:44;7.00;99.90
17146;DHT22;8688;54.444;18.444;2022-11-15T14:40:14;6.90;99.90
17146;DHT22;8688;54.444;18.444;2022-11-15T14:42:42;6.90;99.90
17146;DHT22;8688;54.444;18.444;2022-11-15T14:45:14;6.90;99.90
17146;DHT22;8688;54.444;18.444;2022-11-15T14:47:42;6.90;99.90
17146;DHT22;8688;54.444;18.444;2022-11-15T14:50:14;7.00;99.90
17146;DHT22;8688;54.444;18.444;2022-11-15T14:52:42;6.90;99.90
17146;DHT22;8688;54.444;18.444;2022-11-15T14:55:15;6.90;99.90
17146;DHT22;8688;54.444;18.444;2022-11-15T14:57:44;6.80;99.90
17146;DHT22;8688;54.444;18.444;2022-11-15T15:00:15;6.80;99.90
17146;DHT22;8688;54.444;18.444;2022-11-15T15:02:43;6.70;99.90
17146;DHT22;8688;54.444;18.444;2022-11-15T15:05:16;6.70;99.90
17146;DHT22;8688;54.444;18.444;2022-11-15T15:07:43;6.70;99.90
17146;DHT22;8688;54.444;18.444;2022-11-15T15:10:11;6.70;99.90
17146;DHT22;8688;54.444;18.444;2022-11-15T15:12:39;6.70;99.90
17146;DHT22;8688;54.444;18.444;2022-11-15T15:15:12;6.70;99.90
17146;DHT22;8688;54.444;18.444;2022-11-15T15:17:42;6.70;99.90
17146;DHT22;8688;54.444;18.444;2022-11-15T15:20:10;6.60;99.90
17146;DHT22;8688;54.444;18.444;2022-11-15T15:22:38;6.60;99.90
17146;DHT22;8688;54.444;18.444;2022-11-15T15:25:21;6.60;99.90
17146;DHT22;8688;54.444;18.444;2022-11-15T15:27:48;6.60;99.90
17146;DHT22;8688;54.444;18.444;2022-11-15T15:30:16;6.60;99.90
17146;DHT22;8688;54.444;18.444;2022-11-15T15:32:45;6.60;99.90
17146;DHT22;8688;54.444;18.444;2022-11-15T15:35:13;6.60;99.90
17146;DHT22;8688;54.444;18.444;2022-11-15T15:37:41;6.60;99.90
17146;DHT22;8688;54.444;18.444;2022-11-15T15:40:13;6.60;99.90
17146;DHT22;8688;54.444;18.444;2022-11-15T15:42:41;6.60;99.90
17146;DHT22;8688;54.444;18.444;2022-11-15T15:45:09;6.60;99.90
17146;DHT22;8688;54.444;18.444;2022-11-15T15:47:37;6.50;99.90
17146;DHT22;8688;54.444;18.444;2022-11-15T15:50:14;6.50;99.90
17146;DHT22;8688;54.444;18.444;2022-11-15T15:52:44;6.50;99.90
17146;DHT22;8688;54.444;18.444;2022-11-15T15:55:12;6.50;99.90
17146;DHT22;8688;54.444;18.444;2022-11-15T15:57:40;6.50;99.90
17146;DHT22;8688;54.444;18.444;2022-11-15T16:00:09;6.50;99.90
17146;DHT22;8688;54.444;18.444;2022-11-15T16:02:37;6.50;99.90
17146;DHT22;8688;54.444;18.444;2022-11-15T16:05:07;6.50;99.90
17146;DHT22;8688;54.444;18.444;2022-11-15T16:07:35;6.50;99.90
17146;DHT22;8688;54.444;18.444;2022-11-15T16:10:04;6.50;99.90
17146;DHT22;8688;54.444;18.444;2022-11-15T16:12:41;6.50;99.90
17146;DHT22;8688;54.444;18.444;2022-11-15T16:15:09;6.50;99.90
17146;DHT22;8688;54.444;18.444;2022-11-15T16:17:39;6.50;99.90
17146;DHT22;8688;54.444;18.444;2022-11-15T16:20:20;6.50;99.90
17146;DHT22;8688;54.444;18.444;2022-11-15T16:22:49;6.50;99.90
17146;DHT22;8688;54.444;18.444;2022-11-15T16:25:19;6.60;99.90
17146;DHT22;8688;54.444;18.444;2022-11-15T16:27:49;6.50;99.90
17146;DHT22;8688;54.444;18.444;2022-11-15T16:30:18;6.50;99.90
17146;DHT22;8688;54.444;18.444;2022-11-15T16:32:46;6.50;99.90
17146;DHT22;8688;54.444;18.444;2022-11-15T16:35:16;6.50;99.90
17146;DHT22;8688;54.444;18.444;2022-11-15T16:37:44;6.50;99.90
17146;DHT22;8688;54.444;18.444;2022-11-15T16:40:28;6.50;99.90
17146;DHT22;8688;54.444;18.444;2022-11-15T16:42:57;6.40;99.90
17146;DHT22;8688;54.444;18.444;2022-11-15T16:45:25;6.40;99.90
17146;DHT22;8688;54.444;18.444;2022-11-15T16:47:54;6.40;99.90
17146;DHT22;8688;54.444;18.444;2022-11-15T16:50:26;6.40;99.90
17146;DHT22;8688;54.444;18.444;2022-11-15T16:52:55;6.50;99.90
17146;DHT22;8688;54.444;18.444;2022-11-15T16:55:24;6.50;99.90
17146;DHT22;8688;54.444;18.444;2022-11-15T16:57:52;6.50;99.90
17146;DHT22;8688;54.444;18.444;2022-11-15T17:00:20;6.50;99.90
17146;DHT22;8688;54.444;18.444;2022-11-15T17:02:49;6.50;99.90
17146;DHT22;8688;54.444;18.444;2022-11-15T17:05:20;6.50;99.90
17146;DHT22;8688;54.444;18.444;2022-11-15T17:07:50;6.40;99.90
17146;DHT22;8688;54.444;18.444;2022-11-15T17:10:19;6.50;99.90
17146;DHT22;8688;54.444;18.444;2022-11-15T17:12:47;6.50;99.90
17146;DHT22;8688;54.444;18.444;2022-11-15T17:15:15;6.40;99.90